Wednesday, December 12, 2018, 10:55 PM EST
Back to Local

KPWM, Portland International Jetport

Location: Portland, ME, United States Lat: 43.65
Local Time: 10:55 PM EST ( 3:55 GMT) Lon: -70.3
Time Zone: US/Eastern Elev: 75 ft

Show me the last for .
Show Decoded

2018-12-12 21:51 METAR KPWM 130251Z VRB04KT 10SM CLR M09/M16 A3033 RMK AO2 SLP273 T10891161 51029
                 =
2018-12-12 20:51 METAR KPWM 130151Z 35006KT 10SM CLR M08/M16 A3031 RMK AO2 SLP266 T10831161 =
2018-12-12 19:51 METAR KPWM 130051Z 34008KT 10SM CLR M08/M16 A3029 RMK AO2 SLP257 T10781161 =
2018-12-12 18:51 METAR KPWM 122351Z 34011KT 10SM CLR M06/M17 A3025 RMK AO2 SLP244 T10611167 11006
                 21061 51044 =
2018-12-12 17:51 METAR KPWM 122251Z 34007KT 10SM CLR M06/M17 A3021 RMK AO2 SLP231 T10561167 =
2018-12-12 16:51 METAR KPWM 122151Z 34010KT 10SM CLR M04/M17 A3016 RMK AO2 SLP215 T10441172 =
2018-12-12 15:51 METAR KPWM 122051Z 32011KT 10SM FEW043 M03/M17 A3012 RMK AO2 SLP200 T10281167
                 53032 =
2018-12-12 14:51 METAR KPWM 121951Z 31013KT 10SM FEW043 M02/M14 A3009 RMK AO2 SLP190 T10171144 =
2018-12-12 13:51 METAR KPWM 121851Z 36008G18KT 320V050 10SM FEW043 M01/M10 A3005 RMK AO2 SLP177
                 T10061100 =
2018-12-12 12:51 METAR KPWM 121751Z 05009KT 10SM FEW038 M01/M09 A3002 RMK AO2 SLP168 T10111094
                 11006 21067 53001 =
2018-12-12 11:51 METAR KPWM 121651Z VRB05KT 10SM SCT040 M01/M09 A3001 RMK AO2 SLP165 T10111089 =
2018-12-12 10:51 METAR KPWM 121551Z 03008KT 10SM FEW035 M03/M09 A3001 RMK AO2 SLP164 T10281089 =
2018-12-12 09:51 METAR KPWM 121451Z 01009KT 10SM FEW060 SCT085 M04/M09 A3002 RMK AO2 SLP166
                 T10441094 51024 =
2018-12-12 08:51 METAR KPWM 121351Z 35006KT 10SM OVC085 M05/M11 A3000 RMK AO2 SLP161 T10501106 =
2018-12-12 07:51 METAR KPWM 121251Z 34004KT 10SM OVC085 M06/M11 A2997 RMK AO2 SLP150 T10561111 =
2018-12-12 06:51 METAR KPWM 121151Z 34004KT 10SM OVC090 M07/M11 A2995 RMK AO2 SLP142 T10671106
                 11061 21094 51016 =
2018-12-12 05:51 METAR KPWM 121051Z 34003KT 10SM OVC080 M06/M11 A2993 RMK AO2 SLP136 T10611106 =
2018-12-12 04:51 METAR KPWM 120951Z VRB03KT 10SM OVC075 M07/M10 A2992 RMK AO2 SLP132 T10671100 =
2018-12-12 03:51 METAR KPWM 120851Z AUTO 31005KT 10SM SCT075 M07/M11 A2990 RMK AO2 SLP126
                 T10721106 56002 =
2018-12-12 02:51 METAR KPWM 120751Z AUTO 30005KT 10SM CLR M08/M11 A2991 RMK AO2 SLP128 T10831106
                 =
2018-12-12 01:51 METAR KPWM 120651Z AUTO 30004KT 10SM CLR M09/M12 A2990 RMK AO2 SLP125 T10941117
                 =
2018-12-12 00:51 METAR KPWM 120551Z AUTO VRB04KT 10SM CLR M08/M11 A2991 RMK AO2 SLP128 60000
                 T10831106 11039 21089 57015 =
2018-12-11 23:51 METAR KPWM 120451Z 33005KT 10SM CLR M08/M11 A2992 RMK AO2 SLP132 LAST T10831106
                 400001122 =

Support USWX by starting your Amazon purchase here.